createdAt,value
2023-02-07T00:01:40.160Z,82.81
2023-02-07T00:04:08.254Z,82.83
2023-02-07T00:06:37.125Z,82.92
2023-02-07T00:09:07.548Z,82.84
2023-02-07T00:11:37.266Z,82.91
2023-02-07T00:14:05.130Z,82.85
2023-02-07T00:16:33.641Z,82.74
2023-02-07T00:19:01.571Z,82.55
2023-02-07T00:21:30.052Z,82.72
2023-02-07T00:23:58.534Z,82.74
2023-02-07T00:26:27.535Z,82.64
2023-02-07T00:28:56.385Z,83.18
2023-02-07T00:31:27.385Z,83.28
2023-02-07T00:33:58.071Z,83.60
2023-02-07T00:36:28.517Z,83.33
2023-02-07T00:39:01.203Z,83.17
2023-02-07T00:41:29.964Z,83.31
2023-02-07T00:43:58.060Z,82.85
2023-02-07T00:46:26.706Z,82.81
2023-02-07T00:48:54.876Z,82.83
2023-02-07T00:51:25.861Z,82.87
2023-02-07T00:53:57.530Z,82.88
2023-02-07T00:56:27.721Z,83.00
2023-02-07T00:58:55.635Z,83.27
2023-02-07T06:35:21.740Z,85.37
2023-02-07T06:37:49.537Z,85.34
2023-02-07T06:40:17.831Z,85.29
2023-02-07T06:42:45.976Z,85.27
2023-02-07T06:45:13.769Z,85.21
2023-02-07T06:47:41.558Z,85.17
2023-02-07T06:50:09.645Z,85.05
2023-02-07T06:52:37.819Z,84.89
2023-02-07T06:55:06.234Z,84.74
2023-02-07T06:57:34.070Z,84.65
2023-02-07T07:00:03.267Z,84.62
2023-02-07T07:02:31.837Z,84.57
2023-02-07T07:04:59.818Z,84.57
2023-02-07T07:07:27.636Z,84.47
2023-02-07T07:09:55.445Z,84.41
2023-02-07T07:12:23.310Z,84.38
2023-02-07T07:14:51.067Z,84.35
2023-02-07T07:17:18.831Z,84.34
2023-02-07T07:19:46.708Z,84.36
2023-02-07T07:22:14.563Z,84.34
2023-02-07T07:24:42.436Z,84.32
2023-02-07T07:27:10.312Z,84.30
2023-02-07T07:29:38.268Z,84.31
2023-02-07T07:32:07.854Z,84.34
2023-02-07T07:34:39.770Z,84.24
2023-02-07T07:37:07.801Z,84.21
2023-02-07T07:39:35.563Z,84.19
2023-02-07T07:42:03.661Z,84.20
2023-02-07T07:44:31.461Z,84.17
2023-02-07T07:46:59.467Z,84.17
2023-02-07T07:49:27.431Z,84.19
2023-02-07T07:51:55.312Z,84.19
2023-02-07T07:54:23.097Z,84.21
2023-02-07T07:56:50.854Z,84.18
2023-02-07T07:59:23.860Z,83.75
2023-02-07T08:01:52.384Z,83.87
2023-02-07T08:04:20.160Z,83.89
2023-02-07T08:06:48.334Z,83.89
2023-02-07T08:09:16.290Z,83.84
2023-02-07T08:11:44.070Z,83.75
2023-02-07T08:14:11.921Z,83.72
2023-02-07T08:16:39.789Z,83.72
2023-02-07T08:19:07.760Z,83.72
2023-02-07T08:21:35.723Z,83.71
2023-02-07T08:24:03.705Z,83.73
2023-02-07T08:26:31.763Z,83.68
2023-02-07T08:28:59.634Z,83.60
2023-02-07T08:31:27.477Z,83.56
2023-02-07T08:33:55.459Z,83.57
2023-02-07T08:36:23.387Z,83.56
2023-02-07T08:38:52.070Z,83.25
2023-02-07T08:41:19.831Z,83.03
2023-02-07T08:43:47.745Z,82.82
2023-02-07T08:46:16.075Z,82.68
2023-02-07T08:48:43.992Z,82.39
2023-02-07T08:51:11.808Z,82.68
2023-02-07T08:53:39.554Z,82.84
2023-02-07T08:56:09.128Z,82.81
2023-02-07T08:58:37.088Z,82.73
2023-02-07T09:01:05.161Z,82.61
2023-02-07T09:03:33.032Z,82.28
2023-02-07T09:06:00.832Z,82.32
2023-02-07T09:08:28.590Z,82.39
2023-02-07T09:10:56.539Z,82.37
2023-02-07T09:13:24.692Z,82.36
2023-02-07T09:15:57.713Z,82.09
2023-02-07T09:18:26.361Z,82.12
2023-02-07T09:20:54.240Z,82.26
2023-02-07T09:23:22.394Z,81.84
2023-02-07T09:25:52.700Z,81.92
2023-02-07T09:28:25.044Z,81.83
2023-02-07T09:30:53.381Z,81.59
2023-02-07T09:33:23.599Z,81.12
2023-02-07T09:35:51.710Z,80.67
2023-02-07T09:38:22.506Z,81.22
2023-02-07T09:40:51.646Z,81.30
2023-02-07T09:44:03.491Z,81.47
2023-02-07T09:46:48.638Z,80.36
2023-02-07T09:49:29.653Z,80.61
2023-02-07T09:51:58.893Z,81.21
2023-02-07T09:54:36.633Z,80.83
2023-02-07T09:57:10.348Z,80.49
2023-02-07T09:59:59.600Z,80.64
2023-02-07T10:02:39.044Z,80.12
2023-02-07T10:05:16.884Z,80.51
2023-02-07T10:07:46.857Z,80.25
2023-02-07T10:10:33.666Z,80.67
2023-02-07T10:13:20.775Z,80.25
2023-02-07T10:16:27.302Z,80.17
2023-02-07T10:19:04.563Z,79.68
2023-02-07T10:21:44.275Z,80.28
2023-02-07T10:24:43.688Z,80.37
2023-02-07T10:27:16.086Z,80.45
2023-02-07T10:30:19.253Z,80.48
2023-02-07T10:32:47.748Z,80.47
2023-02-07T10:35:25.261Z,80.55
2023-02-07T10:37:57.178Z,80.48
2023-02-07T10:40:29.380Z,80.41
2023-02-07T10:43:13.152Z,80.34
2023-02-07T10:45:42.563Z,79.69
2023-02-07T10:48:20.574Z,79.75
2023-02-07T10:50:48.759Z,79.79
2023-02-07T10:54:00.592Z,79.85
2023-02-07T10:56:31.188Z,79.78
2023-02-07T10:58:59.716Z,79.13
2023-02-07T11:01:31.042Z,79.20
2023-02-07T11:03:59.613Z,79.48
2023-02-07T11:06:30.127Z,79.65
2023-02-07T11:09:21.561Z,79.94
2023-02-07T11:11:51.479Z,80.03
2023-02-07T11:14:26.821Z,79.90
2023-02-07T11:16:56.549Z,79.94
2023-02-07T11:19:27.316Z,80.09
2023-02-07T11:22:19.127Z,79.76
2023-02-07T11:24:48.263Z,79.63
2023-02-07T11:27:23.806Z,79.23
2023-02-07T11:29:57.729Z,78.54
2023-02-07T11:32:27.829Z,78.36
2023-02-07T11:34:58.260Z,78.70
2023-02-07T11:37:34.865Z,78.45
2023-02-07T11:40:23.557Z,78.32
2023-02-07T11:43:00.148Z,77.56
2023-02-07T11:45:29.164Z,78.24
2023-02-07T11:47:58.157Z,77.34
2023-02-07T11:50:30.862Z,78.00
2023-02-07T11:53:00.806Z,78.06
2023-02-07T11:55:37.087Z,78.14
2023-02-07T11:58:18.578Z,78.22
2023-02-07T12:00:48.013Z,78.10
2023-02-07T12:03:28.375Z,78.30
2023-02-07T12:06:00.885Z,78.14
2023-02-07T12:08:33.289Z,78.45
2023-02-07T12:11:06.354Z,78.61
2023-02-07T12:13:41.855Z,78.61
2023-02-07T12:16:17.971Z,78.41
2023-02-07T12:18:54.978Z,78.21
2023-02-07T12:21:41.583Z,78.28
2023-02-07T12:24:47.730Z,78.47
2023-02-07T12:27:18.688Z,78.47
2023-02-07T12:29:56.607Z,78.28
2023-02-07T12:32:49.464Z,78.18
2023-02-07T12:35:57.499Z,78.14
2023-02-07T12:38:42.438Z,77.89
2023-02-07T12:41:17.218Z,77.60
2023-02-07T12:43:59.117Z,77.78
2023-02-07T12:47:15.537Z,77.97
2023-02-07T12:50:14.004Z,78.00
2023-02-07T12:52:47.810Z,78.07
2023-02-07T12:55:20.736Z,78.10
2023-02-07T12:57:57.271Z,78.10
2023-02-07T13:00:46.873Z,78.23
2023-02-07T13:03:42.549Z,78.26
2023-02-07T13:06:50.761Z,78.12
2023-02-07T13:09:35.728Z,78.08
2023-02-07T13:12:23.353Z,78.15
2023-02-07T13:15:15.991Z,78.24
2023-02-07T13:17:50.290Z,78.28
2023-02-07T13:20:27.111Z,78.34
2023-02-07T13:23:04.372Z,78.40
2023-02-07T13:25:40.096Z,78.34
2023-02-07T13:28:22.818Z,78.30
2023-02-07T13:30:52.118Z,78.48
2023-02-07T13:33:34.757Z,78.66
2023-02-07T13:36:17.871Z,78.65
2023-02-07T13:38:46.394Z,78.64
2023-02-07T13:41:30.813Z,78.69
2023-02-07T13:44:10.162Z,78.86
2023-02-07T13:47:02.690Z,79.14
2023-02-07T13:50:01.801Z,79.21
2023-02-07T13:52:55.477Z,79.25
2023-02-07T13:55:28.390Z,79.19
2023-02-07T13:58:14.945Z,79.13
2023-02-07T14:00:51.596Z,79.15
2023-02-07T14:03:23.296Z,79.15
2023-02-07T14:05:52.571Z,79.16
2023-02-07T14:08:25.118Z,79.19
2023-02-07T14:10:56.050Z,79.17
2023-02-07T14:13:26.857Z,79.25
2023-02-07T14:15:58.135Z,79.39
2023-02-07T14:18:40.876Z,79.57
2023-02-07T14:21:21.305Z,79.51
2023-02-07T14:24:14.081Z,79.58
2023-02-07T14:26:58.300Z,79.51
2023-02-07T14:29:28.478Z,79.64
2023-02-07T14:32:01.309Z,79.58
2023-02-07T14:35:00.645Z,79.74
2023-02-07T14:37:49.491Z,79.63
2023-02-07T14:40:22.824Z,79.58
2023-02-07T14:43:15.939Z,79.50
2023-02-07T14:45:46.932Z,79.50
2023-02-07T14:48:49.635Z,79.53
2023-02-07T14:51:32.487Z,79.50
2023-02-07T14:54:08.513Z,79.64
2023-02-07T14:56:52.458Z,79.65
2023-02-07T14:59:36.278Z,79.65
2023-02-07T15:02:25.818Z,79.75
2023-02-07T15:04:54.050Z,79.91
2023-02-07T15:07:22.089Z,80.05
2023-02-07T15:09:50.016Z,80.10
2023-02-07T15:12:27.609Z,80.09
2023-02-07T15:14:57.260Z,80.09
2023-02-07T15:17:42.569Z,80.17
2023-02-07T15:20:16.494Z,80.17
2023-02-07T15:22:49.104Z,80.21
2023-02-07T15:25:16.987Z,80.38
2023-02-07T15:28:00.553Z,80.38
2023-02-07T15:30:28.863Z,80.39
2023-02-07T15:32:56.911Z,80.49
2023-02-07T15:35:28.440Z,80.55
2023-02-07T15:38:15.656Z,80.58
2023-02-07T15:40:44.048Z,80.63
2023-02-07T15:43:36.507Z,80.68
2023-02-07T15:46:12.103Z,80.75
2023-02-07T15:48:58.188Z,80.82
2023-02-07T15:51:30.417Z,80.90
2023-02-07T15:54:01.254Z,80.98
2023-02-07T15:56:30.746Z,80.92
2023-02-07T15:59:03.534Z,81.01
2023-02-07T16:01:31.976Z,80.86
2023-02-07T16:04:00.484Z,80.93
2023-02-07T16:06:30.438Z,81.06
2023-02-07T16:09:01.799Z,81.14
2023-02-07T16:11:30.659Z,81.08
2023-02-07T16:14:13.970Z,81.10
2023-02-07T16:16:54.946Z,81.14
2023-02-07T16:19:23.217Z,81.23
2023-02-07T16:22:27.786Z,81.24
2023-02-07T16:24:56.019Z,81.33
2023-02-07T16:27:30.336Z,81.34
2023-02-07T16:29:59.708Z,81.34
2023-02-07T16:32:34.159Z,81.30
2023-02-07T16:35:02.149Z,81.37
2023-02-07T16:37:29.999Z,81.49
2023-02-07T16:39:57.960Z,81.56
2023-02-07T16:42:25.830Z,81.75
2023-02-07T16:44:54.000Z,82.14
2023-02-07T16:47:21.963Z,82.00
2023-02-07T16:49:50.079Z,82.05
2023-02-07T16:52:18.004Z,82.01
2023-02-07T16:54:47.209Z,82.15
2023-02-07T16:57:15.510Z,82.10
2023-02-07T16:59:43.247Z,82.11
2023-02-07T17:02:14.964Z,82.26
2023-02-07T17:04:42.955Z,82.35
2023-02-07T17:07:12.403Z,82.38
2023-02-07T17:09:40.585Z,82.25
2023-02-07T17:12:09.950Z,82.33
2023-02-07T17:14:38.455Z,82.37
2023-02-07T17:17:06.503Z,82.41
2023-02-07T17:19:34.360Z,82.43
2023-02-07T17:22:02.367Z,82.38
2023-02-07T17:24:31.954Z,82.43
2023-02-07T17:27:00.156Z,82.45
2023-02-07T17:29:28.080Z,82.45
2023-02-07T17:31:57.657Z,82.53
2023-02-07T17:34:28.597Z,82.64
2023-02-07T17:36:57.018Z,82.47
2023-02-07T17:39:25.784Z,82.61
2023-02-07T17:41:56.720Z,82.67
2023-02-07T17:44:25.601Z,82.64
2023-02-07T17:46:53.867Z,82.72
2023-02-07T17:49:22.160Z,82.76
2023-02-07T17:51:49.984Z,82.90
2023-02-07T17:54:17.807Z,82.86
2023-02-07T17:56:45.860Z,82.89
2023-02-07T17:59:23.039Z,82.87
2023-02-07T18:01:51.781Z,82.94
2023-02-07T18:04:19.683Z,82.90
2023-02-07T18:06:48.166Z,82.93
2023-02-07T18:09:19.009Z,83.00
2023-02-07T18:11:47.382Z,82.95
2023-02-07T18:14:15.239Z,82.76
2023-02-07T18:16:43.251Z,82.69
2023-02-07T18:19:16.169Z,82.64
2023-02-07T18:21:44.914Z,82.82
2023-02-07T18:24:14.183Z,82.85
2023-02-07T18:26:42.294Z,82.83
2023-02-07T18:29:10.615Z,82.92
2023-02-07T18:31:38.923Z,83.13
2023-02-07T18:34:06.985Z,82.97
2023-02-07T18:36:40.413Z,82.85
2023-02-07T18:39:10.543Z,82.84
2023-02-07T18:41:38.660Z,82.97
2023-02-07T18:44:06.876Z,83.11
2023-02-07T18:46:34.872Z,83.16
2023-02-07T18:49:02.877Z,83.28
2023-02-07T18:51:30.844Z,83.30
2023-02-07T18:53:58.713Z,83.16
2023-02-07T18:56:26.983Z,83.08
2023-02-07T18:58:56.865Z,83.16
2023-02-07T19:01:27.968Z,83.13
2023-02-07T19:04:01.660Z,83.33
2023-02-07T19:06:33.003Z,83.23
2023-02-07T19:09:01.288Z,83.04
2023-02-07T19:11:29.754Z,82.94
2023-02-07T19:13:59.139Z,82.87
2023-02-07T19:16:27.516Z,82.87
2023-02-07T19:18:58.454Z,82.76
2023-02-07T19:21:28.886Z,82.76
2023-02-07T19:23:58.158Z,82.63
2023-02-07T19:26:26.456Z,82.66
2023-02-07T19:28:54.477Z,82.81
2023-02-07T19:31:22.885Z,82.78
2023-02-07T19:33:52.104Z,82.81
2023-02-07T19:36:22.424Z,82.85
2023-02-07T19:38:53.797Z,82.83
2023-02-07T19:41:27.350Z,82.98
2023-02-07T19:43:55.547Z,82.91
2023-02-07T19:46:24.376Z,82.86
2023-02-07T19:48:52.608Z,82.86
2023-02-07T19:51:27.481Z,82.96
2023-02-07T19:53:56.790Z,82.94
2023-02-07T19:56:26.544Z,82.91
2023-02-07T19:58:55.749Z,82.92
2023-02-07T20:01:25.323Z,82.87
2023-02-07T20:03:55.787Z,82.88
2023-02-07T20:06:29.264Z,82.78
2023-02-07T20:09:00.122Z,82.78
2023-02-07T20:11:29.205Z,82.70
2023-02-07T20:14:08.645Z,82.67
2023-02-07T20:16:38.779Z,82.64
2023-02-07T20:19:07.755Z,82.65
2023-02-07T20:21:37.578Z,82.59
2023-02-07T20:24:06.390Z,82.54
2023-02-07T20:26:40.572Z,82.50
2023-02-07T20:29:13.924Z,82.43
2023-02-07T20:31:43.129Z,82.35
2023-02-07T20:34:11.744Z,82.46
2023-02-07T20:36:43.824Z,82.47
2023-02-07T20:39:14.756Z,82.55
2023-02-07T20:41:46.215Z,82.48
2023-02-07T20:44:26.766Z,82.48
2023-02-07T20:46:56.371Z,82.49
2023-02-07T20:49:29.965Z,82.42
2023-02-07T20:51:59.464Z,82.33
2023-02-07T20:54:30.242Z,82.29
2023-02-07T20:56:58.593Z,82.36
2023-02-07T20:59:29.418Z,82.34
2023-02-07T21:01:57.384Z,82.26
2023-02-07T21:04:26.756Z,82.18
2023-02-07T21:06:55.066Z,82.09
2023-02-07T21:09:23.239Z,82.12
2023-02-07T21:11:52.837Z,82.24
2023-02-07T21:14:29.794Z,82.15
2023-02-07T21:17:01.783Z,82.07
2023-02-07T21:19:29.844Z,82.01
2023-02-07T21:21:59.091Z,81.99
2023-02-07T21:24:27.835Z,82.04
2023-02-07T21:26:57.181Z,82.11
2023-02-07T21:29:25.988Z,82.08
2023-02-07T21:31:54.216Z,81.97
2023-02-07T21:34:22.796Z,82.04
2023-02-07T21:36:50.943Z,82.00
2023-02-07T21:39:19.526Z,81.91
2023-02-07T21:41:48.141Z,81.94
2023-02-07T21:44:22.446Z,82.00
2023-02-07T21:46:51.209Z,81.99
2023-02-07T21:49:20.905Z,81.86
2023-02-07T21:51:50.523Z,81.85
2023-02-07T21:54:22.393Z,81.89
2023-02-07T21:56:53.743Z,81.87
2023-02-07T21:59:22.609Z,81.85
2023-02-07T22:01:51.160Z,81.84
2023-02-07T22:04:19.585Z,81.90
2023-02-07T22:06:49.495Z,81.90
2023-02-07T22:09:23.942Z,81.96
2023-02-07T22:11:51.818Z,81.96
2023-02-07T22:14:20.105Z,82.00
2023-02-07T22:16:52.603Z,82.06
2023-02-07T22:19:21.355Z,82.09
2023-02-07T22:21:50.814Z,82.08
2023-02-07T22:24:19.939Z,82.12
2023-02-07T22:26:48.286Z,82.10
2023-02-07T22:29:16.016Z,82.24
2023-02-07T22:31:43.951Z,82.30
2023-02-07T22:34:13.765Z,82.41
2023-02-07T22:36:44.010Z,82.43
2023-02-07T22:39:14.210Z,82.33
2023-02-07T22:41:42.459Z,82.25
2023-02-07T22:44:10.880Z,82.20
2023-02-07T22:46:39.035Z,82.22
2023-02-07T22:49:06.883Z,82.31
2023-02-07T22:51:37.866Z,82.51
2023-02-07T22:54:08.765Z,82.73
2023-02-07T22:56:38.229Z,82.77
2023-02-07T22:59:06.626Z,82.63
2023-02-07T23:01:39.053Z,82.44
2023-02-07T23:04:11.498Z,82.44
2023-02-07T23:06:39.513Z,82.40
2023-02-07T23:09:08.267Z,82.37
2023-02-07T23:11:37.259Z,82.31
2023-02-07T23:14:05.439Z,82.28
2023-02-07T23:16:34.669Z,82.27
2023-02-07T23:19:13.738Z,82.29
2023-02-07T23:21:41.596Z,82.36
2023-02-07T23:24:10.812Z,82.35
2023-02-07T23:26:38.982Z,82.29
2023-02-07T23:29:06.854Z,82.20
2023-02-07T23:31:35.233Z,82.18
2023-02-07T23:34:03.319Z,82.21
2023-02-07T23:36:31.287Z,82.26
2023-02-07T23:38:59.068Z,82.30
2023-02-07T23:41:27.070Z,82.31
2023-02-07T23:43:56.940Z,82.32
2023-02-07T23:46:24.809Z,82.33
2023-02-07T23:48:53.173Z,82.32
2023-02-07T23:51:21.130Z,82.32
2023-02-07T23:53:48.892Z,82.31
2023-02-07T23:56:22.161Z,82.33
2023-02-07T23:58:51.585Z,82.33
